createdAt,value
2023-05-01T00:01:55.983Z,9.26
2023-05-01T00:06:57.848Z,9.71
2023-05-01T00:11:59.961Z,9.28
2023-05-01T00:17:02.199Z,9.21
2023-05-01T00:22:04.246Z,9.25
2023-05-01T00:27:06.323Z,9.29
2023-05-01T00:32:08.501Z,9.30
2023-05-01T00:37:10.926Z,9.34
2023-05-01T00:42:12.982Z,9.36
2023-05-01T00:47:15.178Z,9.36
2023-05-01T00:52:17.252Z,9.31
2023-05-01T00:57:22.289Z,9.70
2023-05-01T01:02:24.431Z,9.23
2023-05-01T01:07:29.592Z,9.26
2023-05-01T01:12:46.125Z,9.32
2023-05-01T01:18:02.718Z,9.36
2023-05-01T01:23:16.873Z,9.47
2023-05-01T01:28:52.537Z,9.60
2023-05-01T01:34:23.727Z,9.55
2023-05-01T01:39:49.654Z,9.67
2023-05-01T01:44:55.399Z,9.49
2023-05-01T01:49:59.957Z,9.44
2023-05-01T01:55:12.036Z,9.49
2023-05-01T02:00:14.433Z,9.82
2023-05-01T02:05:21.994Z,9.45
2023-05-01T02:10:25.810Z,9.43
2023-05-01T02:15:29.563Z,9.44
2023-05-01T02:20:33.709Z,9.45
2023-05-01T02:25:39.612Z,9.56
2023-05-01T02:30:41.667Z,9.53
2023-05-01T02:35:47.580Z,10.00
2023-05-01T02:40:56.205Z,9.62
2023-05-01T02:45:59.936Z,9.49
2023-05-01T02:51:03.712Z,9.73
2023-05-01T02:56:07.904Z,9.80
2023-05-01T03:01:11.394Z,9.85
2023-05-01T03:06:14.485Z,9.91
2023-05-01T03:11:16.569Z,9.87
2023-05-01T03:16:18.659Z,10.53
2023-05-01T03:21:20.682Z,10.31
2023-05-01T03:26:22.542Z,10.95
2023-05-01T03:31:25.525Z,10.76
2023-05-01T03:36:28.816Z,11.02
2023-05-01T03:41:31.216Z,11.18
2023-05-01T03:46:44.643Z,11.25
2023-05-01T03:51:53.271Z,11.39
2023-05-01T03:56:55.141Z,11.92
2023-05-01T04:01:57.298Z,11.48
2023-05-01T04:07:01.846Z,11.46
2023-05-01T04:12:04.297Z,11.47
2023-05-01T04:17:06.348Z,11.45
2023-05-01T04:22:11.495Z,11.56
2023-05-01T04:27:14.847Z,11.51
2023-05-01T04:32:17.610Z,11.44
2023-05-01T04:37:19.831Z,11.38
2023-05-01T04:42:21.969Z,11.39
2023-05-01T04:47:24.041Z,11.40
2023-05-01T04:52:26.284Z,11.39
2023-05-01T04:57:33.050Z,11.44
2023-05-01T05:02:37.472Z,11.49
2023-05-01T05:07:40.019Z,11.53
2023-05-01T05:13:00.894Z,11.55
2023-05-01T05:18:03.927Z,11.59
2023-05-01T05:23:08.436Z,11.62
2023-05-01T05:28:10.813Z,11.60
2023-05-01T05:33:13.947Z,11.66
2023-05-01T05:38:16.021Z,11.82
2023-05-01T05:43:21.085Z,12.01
2023-05-01T05:48:23.353Z,12.03
2023-05-01T05:53:26.239Z,12.23
2023-05-01T05:58:29.457Z,12.39
2023-05-01T06:03:31.950Z,12.52
2023-05-01T06:08:37.711Z,12.62
2023-05-01T06:13:42.643Z,12.65
2023-05-01T06:18:45.934Z,12.80
2023-05-01T06:23:48.188Z,12.80
2023-05-01T06:29:03.688Z,12.80
2023-05-01T06:34:06.086Z,12.77
2023-05-01T06:39:22.603Z,12.84
2023-05-01T06:44:24.923Z,12.85
2023-05-01T06:49:27.426Z,13.72
2023-05-01T06:54:29.422Z,13.69
2023-05-01T06:59:31.568Z,14.14
2023-05-01T07:04:33.687Z,14.21
2023-05-01T07:09:36.108Z,14.37
2023-05-01T07:14:38.272Z,14.54
2023-05-01T07:19:40.516Z,14.21
2023-05-01T07:24:42.587Z,14.36
2023-05-01T07:29:44.748Z,15.41
2023-05-01T07:34:46.753Z,14.91
2023-05-01T07:39:48.829Z,15.20
2023-05-01T07:44:51.625Z,15.51
2023-05-01T07:49:54.021Z,16.00
2023-05-01T07:54:56.321Z,16.52
2023-05-01T07:59:58.514Z,17.06
2023-05-01T08:05:01.157Z,17.57
2023-05-01T08:10:03.967Z,17.88
2023-05-01T08:15:07.490Z,17.95
2023-05-01T08:20:10.332Z,17.83
2023-05-01T08:25:12.426Z,17.50
2023-05-01T08:30:14.540Z,17.29
2023-05-01T08:35:16.701Z,16.97
2023-05-01T08:40:19.079Z,16.37
2023-05-01T08:45:24.196Z,15.89
2023-05-01T08:50:27.798Z,15.39
2023-05-01T08:55:32.243Z,15.28
2023-05-01T09:00:37.273Z,15.22
2023-05-01T09:05:39.546Z,15.29
2023-05-01T09:10:48.432Z,15.36
2023-05-01T09:15:50.772Z,15.38
2023-05-01T09:20:54.862Z,15.35
2023-05-01T09:25:58.585Z,15.63
2023-05-01T09:31:02.107Z,16.06
2023-05-01T09:36:04.505Z,16.32
2023-05-01T09:41:06.734Z,16.28
2023-05-01T09:46:13.028Z,16.37
2023-05-01T09:51:20.816Z,16.51
2023-05-01T09:56:24.029Z,16.32
2023-05-01T10:01:39.649Z,16.68
2023-05-01T10:06:42.230Z,16.44
2023-05-01T10:11:55.762Z,16.22
2023-05-01T10:16:58.178Z,15.33
2023-05-01T10:22:00.414Z,14.91
2023-05-01T10:27:05.682Z,14.44
2023-05-01T10:32:08.803Z,14.17
2023-05-01T10:37:21.975Z,14.03
2023-05-01T10:42:24.054Z,13.50
2023-05-01T10:47:27.739Z,13.52
2023-05-01T10:52:29.818Z,12.49
2023-05-01T10:57:44.934Z,12.31
2023-05-01T11:02:47.003Z,11.82
2023-05-01T11:08:27.458Z,11.82
2023-05-01T11:14:04.431Z,11.60
2023-05-01T11:19:29.434Z,11.34
2023-05-01T11:24:33.169Z,10.88
2023-05-01T11:29:37.372Z,10.78
2023-05-01T11:34:39.499Z,10.76
2023-05-01T11:39:51.693Z,10.90
2023-05-01T11:45:06.902Z,11.19
2023-05-01T11:50:10.506Z,10.82
2023-05-01T11:55:12.921Z,10.70
2023-05-01T12:00:17.723Z,10.63
2023-05-01T12:05:19.854Z,10.44
2023-05-01T12:10:22.201Z,10.22
2023-05-01T12:15:24.289Z,10.06
2023-05-01T12:20:44.412Z,10.20
2023-05-01T12:25:47.162Z,10.01
2023-05-01T12:30:49.737Z,9.99
2023-05-01T12:35:51.983Z,10.02
2023-05-01T12:40:59.653Z,10.09
2023-05-01T12:46:03.121Z,10.06
2023-05-01T12:51:05.641Z,10.10
2023-05-01T12:56:07.809Z,10.01
2023-05-01T13:01:09.918Z,10.05
2023-05-01T13:06:13.183Z,10.52
2023-05-01T13:11:17.475Z,10.10
2023-05-01T13:16:20.437Z,9.99
2023-05-01T13:21:24.170Z,9.97
2023-05-01T13:26:35.336Z,9.88
2023-05-01T13:31:37.768Z,9.90
2023-05-01T13:36:40.792Z,10.02
2023-05-01T13:41:42.783Z,10.16
2023-05-01T13:46:45.014Z,10.79
2023-05-01T13:51:47.519Z,10.65
2023-05-01T13:56:49.588Z,10.78
2023-05-01T14:01:51.605Z,11.34
2023-05-01T14:06:53.872Z,10.80
2023-05-01T14:11:56.236Z,10.64
2023-05-01T14:16:58.330Z,10.57
2023-05-01T14:22:00.370Z,10.69
2023-05-01T14:27:02.225Z,11.31
2023-05-01T14:32:04.599Z,11.02
2023-05-01T14:37:06.723Z,11.02
2023-05-01T14:42:08.749Z,10.99
2023-05-01T14:47:10.751Z,11.54
2023-05-01T14:52:20.445Z,11.25
2023-05-01T14:57:22.473Z,11.11
2023-05-01T15:02:24.570Z,11.64
2023-05-01T15:07:26.675Z,11.20
2023-05-01T15:12:29.227Z,11.57
2023-05-01T15:17:32.540Z,10.97
2023-05-01T15:22:34.801Z,10.85
2023-05-01T15:27:36.833Z,11.24
2023-05-01T15:32:38.953Z,10.58
2023-05-01T15:37:41.513Z,10.36
2023-05-01T15:42:45.569Z,10.27
2023-05-01T15:47:47.925Z,10.24
2023-05-01T15:52:52.520Z,10.20
2023-05-01T15:57:54.512Z,10.18
2023-05-01T16:02:56.384Z,10.64
2023-05-01T16:08:00.894Z,10.24
2023-05-01T16:13:06.486Z,10.24
2023-05-01T16:18:08.554Z,10.13
2023-05-01T16:23:11.408Z,10.56
2023-05-01T16:28:14.623Z,10.06
2023-05-01T16:33:19.419Z,10.00
2023-05-01T16:38:21.797Z,9.85
2023-05-01T16:43:24.239Z,9.77
2023-05-01T16:48:26.320Z,9.72
2023-05-01T16:53:28.423Z,9.65
2023-05-01T16:58:30.512Z,9.66
2023-05-01T17:03:32.699Z,9.64
2023-05-01T17:08:34.748Z,9.52
2023-05-01T17:13:37.536Z,9.63
2023-05-01T17:18:39.698Z,9.61
2023-05-01T17:23:41.780Z,9.63
2023-05-01T17:28:46.360Z,10.12
2023-05-01T17:33:48.378Z,9.69
2023-05-01T17:38:50.631Z,9.61
2023-05-01T17:43:52.750Z,9.54
2023-05-01T17:48:54.843Z,9.40
2023-05-01T17:53:56.933Z,9.29
2023-05-01T17:58:59.593Z,9.16
2023-05-01T18:04:01.909Z,8.99
2023-05-01T18:09:04.268Z,8.83
2023-05-01T18:14:06.373Z,8.68
2023-05-01T18:19:08.530Z,8.55
2023-05-01T18:24:10.626Z,8.44
2023-05-01T18:29:15.858Z,8.39
2023-05-01T18:34:19.382Z,8.34
2023-05-01T18:39:22.251Z,8.31
2023-05-01T18:44:24.472Z,8.26
2023-05-01T18:49:26.688Z,8.20
2023-05-01T18:54:28.828Z,8.16
2023-05-01T18:59:32.197Z,8.14
2023-05-01T19:04:49.389Z,8.17
2023-05-01T19:09:58.018Z,8.09
2023-05-01T19:15:00.267Z,8.05
2023-05-01T19:20:04.640Z,7.85
2023-05-01T19:25:08.283Z,7.78
2023-05-01T19:30:10.714Z,7.78
2023-05-01T19:35:12.862Z,7.68
2023-05-01T19:40:16.014Z,7.57
2023-05-01T19:45:18.332Z,7.44
2023-05-01T19:50:20.455Z,7.36
2023-05-01T19:55:22.590Z,7.29
2023-05-01T20:00:24.757Z,7.21
2023-05-01T20:05:28.474Z,7.18
2023-05-01T20:10:30.837Z,7.10
2023-05-01T20:15:33.042Z,7.02
2023-05-01T20:20:35.285Z,6.84
2023-05-01T20:25:37.661Z,6.91
2023-05-01T20:30:42.146Z,6.78
2023-05-01T20:35:45.302Z,6.78
2023-05-01T20:40:47.477Z,6.68
2023-05-01T20:45:49.508Z,6.61
2023-05-01T20:50:51.659Z,6.52
2023-05-01T20:55:53.648Z,6.37
2023-05-01T21:00:56.141Z,6.37
2023-05-01T21:05:59.271Z,6.30
2023-05-01T21:11:02.574Z,6.22
2023-05-01T21:16:09.715Z,6.22
2023-05-01T21:21:14.018Z,6.15
2023-05-01T21:26:16.501Z,6.05
2023-05-01T21:31:18.788Z,6.00
2023-05-01T21:36:20.896Z,5.92
2023-05-01T21:41:22.963Z,5.89
2023-05-01T21:46:25.129Z,5.84
2023-05-01T21:51:28.585Z,5.80
2023-05-01T21:56:31.109Z,5.78
2023-05-01T22:01:33.257Z,5.73
2023-05-01T22:06:35.336Z,5.67
2023-05-01T22:11:37.472Z,5.60
2023-05-01T22:16:40.876Z,5.54
2023-05-01T22:21:42.984Z,5.47
2023-05-01T22:26:45.146Z,5.39
2023-05-01T22:31:47.241Z,5.37
2023-05-01T22:36:49.529Z,5.36
2023-05-01T22:41:51.655Z,5.33
2023-05-01T22:46:53.803Z,5.30
2023-05-01T22:51:57.304Z,5.27
2023-05-01T22:56:59.362Z,5.23
2023-05-01T23:02:05.082Z,5.24
2023-05-01T23:07:07.450Z,4.99
2023-05-01T23:12:16.779Z,5.15
2023-05-01T23:17:18.961Z,5.03
2023-05-01T23:22:21.435Z,5.00
2023-05-01T23:27:23.563Z,4.97
2023-05-01T23:32:28.325Z,4.97
2023-05-01T23:37:30.504Z,4.89
2023-05-01T23:42:33.310Z,4.82
2023-05-01T23:47:35.832Z,4.85
2023-05-01T23:52:38.339Z,4.82
2023-05-01T23:57:40.412Z,4.77
